createdAt,value
2018-06-13T00:01:28.282Z,73.30
2018-06-13T00:04:16.222Z,73.20
2018-06-13T00:07:05.172Z,73.90
2018-06-13T00:09:57.657Z,74.00
2018-06-13T00:12:43.907Z,75.00
2018-06-13T00:15:30.343Z,73.10
2018-06-13T00:18:11.942Z,72.50
2018-06-13T00:21:04.968Z,72.50
2018-06-13T00:23:47.616Z,72.50
2018-06-13T00:26:35.097Z,73.20
2018-06-13T00:29:23.613Z,74.10
2018-06-13T00:32:00.365Z,74.60
2018-06-13T00:37:18.092Z,75.10
2018-06-13T00:39:51.088Z,75.20
2018-06-13T00:42:27.990Z,75.80
2018-06-13T00:45:10.826Z,75.80
2018-06-13T00:47:54.338Z,75.80
2018-06-13T00:50:28.755Z,75.60
2018-06-13T00:53:05.834Z,74.90
2018-06-13T00:55:53.946Z,75.60
2018-06-13T00:58:36.584Z,76.20
2018-06-13T01:01:12.908Z,76.40
2018-06-13T01:03:50.711Z,75.60
2018-06-13T01:06:30.190Z,75.70
2018-06-13T01:09:08.910Z,75.40
2018-06-13T01:11:46.766Z,74.50
2018-06-13T01:14:27.631Z,74.50
2018-06-13T01:17:07.372Z,75.20
2018-06-13T01:19:51.534Z,75.90
2018-06-13T01:22:32.106Z,74.30
2018-06-13T01:27:52.438Z,74.10
2018-06-13T01:30:30.068Z,74.20
2018-06-13T01:35:43.068Z,73.10
2018-06-13T01:38:25.204Z,72.50
2018-06-13T01:41:10.118Z,71.90
2018-06-13T01:43:54.808Z,73.80
2018-06-13T01:46:41.531Z,73.20
2018-06-13T01:49:18.937Z,74.10
2018-06-13T01:51:59.843Z,74.00
2018-06-13T01:54:34.652Z,73.40
2018-06-13T01:57:21.034Z,73.00
2018-06-13T01:59:55.956Z,73.00
2018-06-13T02:02:36.167Z,72.30
2018-06-13T02:05:12.054Z,72.20
2018-06-13T02:07:50.687Z,72.80
2018-06-13T02:10:30.437Z,72.30
2018-06-13T02:13:09.720Z,72.40
2018-06-13T02:15:50.046Z,72.80
2018-06-13T02:18:29.684Z,74.10
2018-06-13T02:21:12.325Z,74.30
2018-06-13T02:23:51.689Z,73.80
2018-06-13T02:26:31.354Z,74.20
2018-06-13T02:29:09.675Z,73.70
2018-06-13T02:31:44.876Z,73.50
2018-06-13T02:34:27.969Z,73.70
2018-06-13T02:37:10.551Z,73.60
2018-06-13T02:42:20.143Z,74.70
2018-06-13T02:44:56.667Z,74.20
2018-06-13T02:47:36.836Z,74.40
2018-06-13T02:50:14.217Z,74.20
2018-06-13T02:52:58.817Z,74.70
2018-06-13T02:55:38.856Z,74.30
2018-06-13T02:58:22.381Z,73.30
2018-06-13T03:01:05.755Z,73.40
2018-06-13T03:03:47.299Z,72.20
2018-06-13T03:06:27.528Z,72.00
2018-06-13T03:09:12.024Z,72.10
2018-06-13T03:14:26.057Z,74.10
2018-06-13T03:17:05.985Z,72.50
2018-06-13T03:22:14.332Z,74.20
2018-06-13T03:27:14.980Z,73.80
2018-06-13T03:32:21.173Z,73.70
2018-06-13T03:34:51.910Z,74.30
2018-06-13T03:40:02.174Z,73.00
2018-06-13T03:45:02.846Z,73.00
2018-06-13T03:47:33.855Z,74.10
2018-06-13T03:52:34.561Z,73.70
2018-06-13T03:55:06.498Z,74.70
2018-06-13T03:57:36.904Z,75.40
2018-06-13T04:00:06.617Z,75.30
2018-06-13T04:02:36.270Z,74.90
2018-06-13T04:05:06.199Z,73.70
2018-06-13T04:07:36.061Z,74.00
2018-06-13T04:12:36.968Z,73.60
2018-06-13T04:15:07.004Z,73.50
2018-06-13T04:17:36.730Z,72.90
2018-06-13T04:20:06.521Z,73.10
2018-06-13T04:22:36.952Z,72.00
2018-06-13T04:25:07.916Z,72.20
2018-06-13T04:27:37.696Z,71.00
2018-06-13T04:30:07.693Z,70.90
2018-06-13T04:32:38.345Z,71.40
2018-06-13T04:35:08.042Z,71.10
2018-06-13T04:37:38.735Z,70.80
2018-06-13T04:40:17.143Z,71.10
2018-06-13T04:42:53.365Z,72.20
2018-06-13T04:45:30.942Z,71.50
2018-06-13T04:48:06.573Z,71.80
2018-06-13T04:50:49.737Z,71.00
2018-06-13T04:53:27.330Z,70.80
2018-06-13T04:56:00.195Z,70.10
2018-06-13T04:58:43.980Z,69.80
2018-06-13T05:04:01.969Z,70.40
2018-06-13T05:06:39.617Z,70.60
2018-06-13T05:09:19.801Z,70.80
2018-06-13T05:11:54.501Z,69.60
2018-06-13T05:14:27.992Z,69.50
2018-06-13T05:17:08.556Z,68.60
2018-06-13T05:19:47.426Z,68.40
2018-06-13T05:22:27.020Z,68.70
2018-06-13T05:27:47.639Z,68.60
2018-06-13T05:30:25.925Z,67.90
2018-06-13T05:33:04.764Z,66.60
2018-06-13T05:35:43.402Z,68.90
2018-06-13T05:38:16.749Z,68.80
2018-06-13T05:40:56.022Z,69.10
2018-06-13T05:43:39.879Z,66.20
2018-06-13T05:46:18.532Z,67.50
2018-06-13T05:49:01.470Z,66.50
2018-06-13T05:51:36.180Z,67.80
2018-06-13T05:54:27.264Z,66.20
2018-06-13T05:57:08.521Z,66.70
2018-06-13T05:59:53.988Z,66.30
2018-06-13T06:02:33.886Z,66.40
2018-06-13T06:05:19.329Z,68.00
2018-06-13T06:08:09.098Z,67.40
2018-06-13T06:10:45.965Z,66.50
2018-06-13T06:13:24.825Z,66.90
2018-06-13T06:18:55.735Z,67.00
2018-06-13T06:21:40.706Z,65.90
2018-06-13T06:24:26.588Z,66.20
2018-06-13T06:38:09.423Z,65.40
2018-06-13T06:43:31.802Z,65.70
2018-06-13T06:46:09.010Z,65.80
2018-06-13T06:48:48.439Z,66.20
2018-06-13T06:51:27.313Z,65.20
2018-06-13T06:56:57.547Z,65.30
2018-06-13T07:02:36.253Z,63.80
2018-06-13T07:10:51.897Z,64.50
2018-06-13T07:13:30.267Z,65.70
2018-06-13T07:21:44.512Z,64.90
2018-06-13T07:24:18.243Z,66.00
2018-06-13T07:26:51.913Z,64.60
2018-06-13T07:29:37.520Z,64.50
2018-06-13T07:32:17.716Z,64.60
2018-06-13T07:35:04.594Z,64.20
2018-06-13T07:37:48.957Z,63.90
2018-06-13T07:40:30.886Z,64.10
2018-06-13T07:46:05.779Z,65.40
2018-06-13T07:48:56.746Z,64.20
2018-06-13T07:54:21.809Z,63.10
2018-06-13T07:57:10.669Z,63.50
2018-06-13T07:59:49.390Z,66.20
2018-06-13T08:02:38.104Z,67.20
2018-06-13T08:05:19.855Z,65.60
2018-06-13T08:10:44.588Z,64.10
2018-06-13T08:13:27.760Z,64.30
2018-06-13T08:18:59.949Z,64.00
2018-06-13T08:24:30.526Z,64.30
2018-06-13T08:27:13.794Z,63.00
2018-06-13T08:32:44.911Z,65.00
2018-06-13T08:35:22.789Z,63.40
2018-06-13T08:38:10.965Z,63.60
2018-06-13T08:41:04.286Z,62.70
2018-06-13T08:46:25.845Z,62.70
2018-06-13T08:51:59.780Z,61.80
2018-06-13T08:57:26.369Z,62.00
2018-06-13T09:00:05.591Z,60.50
2018-06-13T09:05:42.440Z,59.90
2018-06-13T09:08:27.085Z,60.10
2018-06-13T09:19:23.799Z,60.40
2018-06-13T09:24:58.555Z,61.70
2018-06-13T09:30:30.044Z,60.40
2018-06-13T09:33:09.823Z,61.50
2018-06-13T09:35:59.999Z,61.90
2018-06-13T09:38:39.754Z,62.30
2018-06-13T09:41:21.855Z,60.30
2018-06-13T09:44:04.913Z,58.30
2018-06-13T09:46:51.075Z,58.50
2018-06-13T09:52:18.190Z,60.90
2018-06-13T09:55:07.080Z,59.40
2018-06-13T10:03:36.723Z,58.40
2018-06-13T10:06:17.858Z,59.20
2018-06-13T10:09:06.852Z,60.90
2018-06-13T10:11:45.234Z,59.70
2018-06-13T10:14:33.914Z,58.50
2018-06-13T10:19:59.886Z,58.20
2018-06-13T10:22:34.301Z,56.90
2018-06-13T10:27:50.075Z,58.40
2018-06-13T10:33:23.860Z,56.20
2018-06-13T10:36:18.133Z,56.90
2018-06-13T10:39:05.346Z,58.30
2018-06-13T10:50:15.994Z,56.50
2018-06-13T10:52:57.424Z,56.90
2018-06-13T10:58:21.799Z,55.10
2018-06-13T11:00:58.856Z,55.70
2018-06-13T11:03:40.027Z,56.30
2018-06-13T11:06:22.773Z,57.90
2018-06-13T11:11:52.400Z,55.10
2018-06-13T11:14:38.681Z,55.60
2018-06-13T11:27:58.274Z,54.90
2018-06-13T11:30:36.260Z,54.50
2018-06-13T11:33:12.253Z,56.90
2018-06-13T11:35:52.373Z,57.20
2018-06-13T11:38:31.298Z,57.30
2018-06-13T11:41:11.490Z,56.40
2018-06-13T11:43:53.038Z,55.50
2018-06-13T11:46:37.081Z,55.80
2018-06-13T11:49:29.784Z,54.70
2018-06-13T11:52:06.127Z,57.30
2018-06-13T11:54:46.510Z,55.50
2018-06-13T11:57:31.432Z,56.70
2018-06-13T12:00:16.324Z,56.50
2018-06-13T12:02:56.318Z,56.30
2018-06-13T12:05:35.710Z,57.10
2018-06-13T12:08:14.331Z,56.60
2018-06-13T12:10:49.091Z,57.50
2018-06-13T12:13:26.880Z,57.20
2018-06-13T12:15:57.255Z,58.00
2018-06-13T12:18:30.101Z,57.80
2018-06-13T12:24:10.403Z,57.30
2018-06-13T12:26:46.820Z,57.60
2018-06-13T12:29:36.104Z,55.40
2018-06-13T12:35:01.456Z,56.10
2018-06-13T12:37:46.597Z,56.10
2018-06-13T12:48:52.955Z,55.60
2018-06-13T12:51:36.096Z,55.10
2018-06-13T12:57:08.334Z,56.90
2018-06-13T12:59:59.503Z,56.00
2018-06-13T13:02:40.488Z,56.50
2018-06-13T13:13:44.091Z,53.90
2018-06-13T13:16:32.022Z,53.70
2018-06-13T13:19:14.068Z,54.90
2018-06-13T13:22:03.415Z,54.70
2018-06-13T13:27:46.238Z,54.80
2018-06-13T13:33:14.720Z,56.50
2018-06-13T13:35:53.166Z,58.50
2018-06-13T13:44:13.035Z,56.50
2018-06-13T13:46:52.175Z,56.60
2018-06-13T14:00:52.211Z,56.80
2018-06-13T14:06:24.444Z,68.20
2018-06-13T14:11:50.460Z,70.60
2018-06-13T14:20:24.550Z,70.80
2018-06-13T14:28:39.433Z,70.00
2018-06-13T14:34:05.774Z,68.60
2018-06-13T14:39:55.025Z,70.10
2018-06-13T14:48:35.960Z,75.20
2018-06-13T14:51:20.005Z,73.60
2018-06-13T14:54:07.595Z,71.10
2018-06-13T14:56:57.071Z,71.50
2018-06-13T14:59:35.431Z,70.80
2018-06-13T15:02:14.535Z,71.30
2018-06-13T15:05:02.499Z,71.70
2018-06-13T15:07:43.072Z,70.90
2018-06-13T15:13:18.868Z,71.50
2018-06-13T15:16:07.640Z,71.10
2018-06-13T15:21:46.503Z,72.80
2018-06-13T15:24:25.180Z,74.90
2018-06-13T15:27:12.791Z,73.50
2018-06-13T15:29:46.938Z,71.80
2018-06-13T15:32:33.109Z,71.50
2018-06-13T15:35:12.602Z,72.10
2018-06-13T15:40:37.355Z,73.00
2018-06-13T15:43:12.496Z,72.50
2018-06-13T15:45:51.999Z,73.40
2018-06-13T15:48:31.188Z,73.10
2018-06-13T15:51:05.390Z,74.50
2018-06-13T15:56:29.441Z,74.70
2018-06-13T15:59:14.316Z,75.40
2018-06-13T16:01:57.764Z,76.50
2018-06-13T16:07:29.526Z,76.80
2018-06-13T16:12:48.573Z,76.50
2018-06-13T16:15:31.132Z,76.10
2018-06-13T16:18:19.165Z,76.30
2018-06-13T16:21:03.539Z,76.20
2018-06-13T16:23:45.930Z,75.20
2018-06-13T16:26:26.168Z,76.90
2018-06-13T16:29:03.742Z,78.10
2018-06-13T16:31:43.041Z,76.20
2018-06-13T16:34:26.509Z,78.10
2018-06-13T16:37:09.485Z,78.10
2018-06-13T16:39:55.328Z,77.90
2018-06-13T16:45:27.967Z,78.60
2018-06-13T16:48:05.894Z,78.80
2018-06-13T16:50:50.687Z,78.10
2018-06-13T16:53:38.437Z,79.30
2018-06-13T16:56:14.893Z,79.80
2018-06-13T16:58:56.787Z,78.30
2018-06-13T17:01:34.486Z,78.80
2018-06-13T17:04:10.612Z,80.50
2018-06-13T17:06:46.218Z,79.30
2018-06-13T17:09:21.645Z,78.10
2018-06-13T17:12:01.253Z,78.60
2018-06-13T17:14:46.650Z,79.30
2018-06-13T17:17:28.983Z,79.90
2018-06-13T17:25:41.080Z,79.30
2018-06-13T17:31:10.309Z,79.90
2018-06-13T17:34:05.935Z,79.20
2018-06-13T17:36:51.874Z,78.50
2018-06-13T17:39:38.565Z,78.20
2018-06-13T17:42:31.797Z,78.40
2018-06-13T17:50:56.075Z,77.20
2018-06-13T17:53:42.836Z,77.90
2018-06-13T17:56:28.452Z,76.90
2018-06-13T17:59:13.045Z,77.80
2018-06-13T18:01:51.784Z,78.00
2018-06-13T18:07:15.619Z,78.90
2018-06-13T18:09:54.554Z,79.10
2018-06-13T18:12:32.968Z,79.90
2018-06-13T18:15:20.634Z,79.00
2018-06-13T18:20:58.651Z,80.20
2018-06-13T18:23:44.635Z,80.80
2018-06-13T18:26:26.932Z,79.50
2018-06-13T18:40:37.062Z,77.00
2018-06-13T18:43:27.193Z,77.10
2018-06-13T18:46:08.702Z,78.10
2018-06-13T18:48:54.952Z,76.90
2018-06-13T18:54:27.411Z,75.60
2018-06-13T18:57:10.613Z,77.20
2018-06-13T19:02:48.520Z,76.90
2018-06-13T19:05:41.829Z,77.20
2018-06-13T19:08:21.987Z,75.70
2018-06-13T19:11:09.896Z,77.70
2018-06-13T19:16:52.837Z,77.20
2018-06-13T19:19:33.929Z,75.00
2018-06-13T19:22:19.880Z,76.50
2018-06-13T19:25:04.093Z,75.20
2018-06-13T19:27:42.347Z,76.80
2018-06-13T19:36:28.109Z,72.00
2018-06-13T19:39:14.112Z,73.40
2018-06-13T19:47:38.802Z,74.60
2018-06-13T19:50:26.202Z,74.30
2018-06-13T19:53:10.180Z,75.10
2018-06-13T19:56:02.433Z,75.60
2018-06-13T19:58:51.427Z,73.80
2018-06-13T20:04:29.665Z,77.60
2018-06-13T20:10:03.669Z,76.30
2018-06-13T20:12:56.641Z,76.30
2018-06-13T20:18:33.461Z,76.40
2018-06-13T20:21:17.423Z,77.10
2018-06-13T20:29:35.607Z,73.90
2018-06-13T20:32:26.735Z,73.60
2018-06-13T20:37:49.699Z,73.60
2018-06-13T20:43:24.892Z,74.20
2018-06-13T20:49:02.702Z,75.70
2018-06-13T20:54:34.177Z,76.20
2018-06-13T20:57:09.387Z,74.90
2018-06-13T21:02:40.340Z,75.00
2018-06-13T21:05:15.633Z,74.10
2018-06-13T21:08:06.342Z,74.20
2018-06-13T21:10:54.562Z,75.50
2018-06-13T21:13:30.919Z,74.90
2018-06-13T21:16:07.026Z,73.80
2018-06-13T21:18:43.542Z,74.30
2018-06-13T21:24:14.546Z,74.40
2018-06-13T21:26:58.845Z,73.90
2018-06-13T21:29:45.521Z,74.70
2018-06-13T21:32:34.231Z,74.40
2018-06-13T21:35:23.116Z,74.40
2018-06-13T21:46:30.365Z,75.90
2018-06-13T21:49:17.437Z,74.80
2018-06-13T21:52:08.006Z,76.90
2018-06-13T21:54:49.804Z,76.50
2018-06-13T21:57:35.861Z,76.90
2018-06-13T22:00:12.800Z,75.70
2018-06-13T22:03:02.624Z,74.30
2018-06-13T22:05:49.229Z,73.80
2018-06-13T22:08:31.549Z,73.90
2018-06-13T22:11:11.443Z,75.80
2018-06-13T22:13:59.729Z,76.60
2018-06-13T22:16:35.006Z,76.20
2018-06-13T22:22:04.242Z,76.50
2018-06-13T22:27:24.130Z,78.80
2018-06-13T22:35:26.414Z,76.10
2018-06-13T22:41:03.671Z,75.40
2018-06-13T22:43:47.256Z,75.50
2018-06-13T22:46:37.040Z,77.30
2018-06-13T22:49:28.177Z,77.20
2018-06-13T22:52:12.728Z,75.90
2018-06-13T22:54:54.155Z,75.10
2018-06-13T22:57:43.061Z,76.10
2018-06-13T23:00:31.271Z,75.80
2018-06-13T23:03:12.938Z,75.90
2018-06-13T23:05:53.866Z,74.70
2018-06-13T23:08:27.297Z,74.20
2018-06-13T23:13:42.564Z,75.10
2018-06-13T23:16:31.155Z,75.50
2018-06-13T23:19:09.561Z,74.70
2018-06-13T23:21:59.288Z,74.80
2018-06-13T23:24:41.404Z,75.00
2018-06-13T23:27:26.748Z,76.20
2018-06-13T23:30:11.552Z,77.00
2018-06-13T23:35:39.558Z,77.20
2018-06-13T23:38:22.478Z,77.50
2018-06-13T23:41:01.714Z,75.80
2018-06-13T23:43:36.256Z,76.00
2018-06-13T23:46:11.743Z,74.90
2018-06-13T23:48:55.337Z,75.50
2018-06-13T23:54:24.332Z,74.50
